Time,TemperatureF,DewpointF,PressureIn,WindDirection,WindDirectionDegrees,WindSpeedMPH,WindSpeedGustMPH,Humidity,HourlyPrecipIn,Conditions,Clouds,dailyrainin,SoftwareType,DateUTC
2013-09-30 00:02:00,62.4,57.0,30.06,ESE,121,0.0,-999.0,82,-99.99,,,0.00,weatherlink.com 1.10,2013-09-30 05:02:00,
2013-09-30 00:17:00,62.1,57.0,30.06,ESE,103,0.0,-999.0,82,-99.99,,,0.00,weatherlink.com 1.10,2013-09-30 05:17:00,
2013-09-30 00:32:00,61.9,57.0,30.07,ESE,103,4.0,-999.0,83,-99.99,,,0.00,weatherlink.com 1.10,2013-09-30 05:32:00,
2013-09-30 00:47:00,60.9,56.0,30.06,East,82,3.0,-999.0,85,-99.99,,,0.00,weatherlink.com 1.10,2013-09-30 05:47:00,
2013-09-30 01:02:00,60.7,56.0,30.07,East,79,4.0,-999.0,85,-99.99,,,0.00,weatherlink.com 1.10,2013-09-30 06:02:00,
2013-09-30 01:17:00,60.6,56.0,30.07,East,86,3.0,-999.0,85,-99.99,,,0.00,weatherlink.com 1.10,2013-09-30 06:17:00,
2013-09-30 01:32:00,60.5,56.0,30.07,ENE,76,3.0,-999.0,85,-99.99,,,0.00,weatherlink.com 1.10,2013-09-30 06:32:00,
2013-09-30 01:47:00,60.6,56.0,30.07,East,83,3.0,-999.0,85,-99.99,,,0.00,weatherlink.com 1.10,2013-09-30 06:47:00,
2013-09-30 02:02:00,60.6,56.0,30.07,East,92,4.0,-999.0,86,-99.99,,,0.00,weatherlink.com 1.10,2013-09-30 07:02:00,
2013-09-30 02:17:00,60.7,56.0,30.07,East,100,5.0,-999.0,85,-99.99,,,0.00,weatherlink.com 1.10,2013-09-30 07:17:00,
2013-09-30 02:32:00,60.9,56.0,30.06,East,92,1.0,-999.0,85,-99.99,,,0.00,weatherlink.com 1.10,2013-09-30 07:32:00,
2013-09-30 02:47:00,61.1,57.0,30.06,ESE,106,5.0,-999.0,85,-99.99,,,0.00,weatherlink.com 1.10,2013-09-30 07:47:00,
2013-09-30 03:02:00,61.0,57.0,30.06,ESE,103,4.0,-999.0,86,-99.99,,,0.00,weatherlink.com 1.10,2013-09-30 08:02:00,
2013-09-30 03:17:00,60.8,57.0,30.06,ESE,102,5.0,-999.0,86,-99.99,,,0.00,weatherlink.com 1.10,2013-09-30 08:17:00,
2013-09-30 03:32:00,60.7,57.0,30.06,ESE,115,7.0,-999.0,86,-99.99,,,0.00,weatherlink.com 1.10,2013-09-30 08:32:00,
2013-09-30 03:47:00,60.5,57.0,30.06,East,80,3.0,-999.0,87,-99.99,,,0.00,weatherlink.com 1.10,2013-09-30 08:47:00,
2013-09-30 04:02:00,60.3,57.0,30.06,ENE,76,2.0,-999.0,88,-99.99,,,0.00,weatherlink.com 1.10,2013-09-30 09:02:00,
2013-09-30 04:17:00,60.3,57.0,30.07,East,80,2.0,-999.0,88,-99.99,,,0.00,weatherlink.com 1.10,2013-09-30 09:17:00,
2013-09-30 04:32:00,60.4,57.0,30.07,East,80,2.0,-999.0,88,-99.99,,,0.00,weatherlink.com 1.10,2013-09-30 09:32:00,
2013-09-30 04:47:00,60.6,57.0,30.07,East,80,4.0,-999.0,88,-99.99,,,0.00,weatherlink.com 1.10,2013-09-30 09:47:00,
2013-09-30 05:02:00,60.7,57.0,30.07,ENE,69,3.0,-999.0,88,-99.99,,,0.00,weatherlink.com 1.10,2013-09-30 10:02:00,
2013-09-30 05:17:00,60.8,57.0,30.08,East,98,2.0,-999.0,88,-99.99,,,0.00,weatherlink.com 1.10,2013-09-30 10:17:00,
2013-09-30 05:33:00,60.9,57.0,30.08,ENE,65,2.0,-999.0,88,-99.99,,,0.00,weatherlink.com 1.10,2013-09-30 10:33:00,
2013-09-30 05:48:00,60.8,57.0,30.08,East,85,3.0,-999.0,88,-99.99,,,0.00,weatherlink.com 1.10,2013-09-30 10:48:00,
2013-09-30 06:03:00,61.0,57.0,30.08,East,95,5.0,-999.0,87,-99.99,,,0.00,weatherlink.com 1.10,2013-09-30 11:03:00,
2013-09-30 06:18:00,61.2,57.0,30.09,East,99,5.0,-999.0,87,-99.99,,,0.00,weatherlink.com 1.10,2013-09-30 11:18:00,
2013-09-30 06:33:00,61.2,57.0,30.09,ESE,120,8.0,-999.0,87,-99.99,,,0.00,weatherlink.com 1.10,2013-09-30 11:33:00,
2013-09-30 06:48:00,61.3,57.0,30.09,ESE,102,5.0,-999.0,86,-99.99,,,0.00,weatherlink.com 1.10,2013-09-30 11:48:00,
2013-09-30 07:03:00,61.3,57.0,30.10,East,83,3.0,-999.0,86,-99.99,,,0.00,weatherlink.com 1.10,2013-09-30 12:03:00,
2013-09-30 07:18:00,61.3,57.0,30.10,ESE,109,2.0,-999.0,86,-99.99,,,0.00,weatherlink.com 1.10,2013-09-30 12:18:00,
2013-09-30 07:33:00,61.4,57.0,30.10,East,90,0.0,-999.0,86,-99.99,,,0.00,weatherlink.com 1.10,2013-09-30 12:33:00,
2013-09-30 07:48:00,61.6,57.0,30.11,East,88,0.0,-999.0,86,-99.99,,,0.00,weatherlink.com 1.10,2013-09-30 12:48:00,
2013-09-30 08:03:00,61.7,58.0,30.11,East,92,4.0,-999.0,86,-99.99,,,0.00,weatherlink.com 1.10,2013-09-30 13:03:00,
2013-09-30 08:18:00,61.9,57.0,30.12,East,92,1.0,-999.0,85,-99.99,,,0.00,weatherlink.com 1.10,2013-09-30 13:18:00,
2013-09-30 08:33:00,62.2,58.0,30.12,ESE,107,4.0,-999.0,85,-99.99,,,0.00,weatherlink.com 1.10,2013-09-30 13:33:00,
2013-09-30 08:48:00,62.5,58.0,30.11,ESE,106,4.0,-999.0,84,-99.99,,,0.00,weatherlink.com 1.10,2013-09-30 13:48:00,
2013-09-30 09:03:00,63.1,58.0,30.12,SE,125,4.0,-999.0,84,-99.99,,,0.00,weatherlink.com 1.10,2013-09-30 14:03:00,
2013-09-30 09:18:00,63.7,58.0,30.12,ESE,117,8.0,-999.0,81,-99.99,,,0.00,weatherlink.com 1.10,2013-09-30 14:18:00,
2013-09-30 09:33:00,64.1,58.0,30.13,ESE,123,0.0,-999.0,80,-99.99,,,0.00,weatherlink.com 1.10,2013-09-30 14:33:00,
2013-09-30 09:48:00,64.6,58.0,30.12,SE,143,7.0,-999.0,80,-99.99,,,0.00,weatherlink.com 1.10,2013-09-30 14:48:00,
2013-09-30 10:03:00,65.2,59.0,30.12,ESE,114,1.0,-999.0,79,-99.99,,,0.00,weatherlink.com 1.10,2013-09-30 15:03:00,
2013-09-30 10:18:00,65.9,59.0,30.12,SSE,148,4.0,-999.0,77,-99.99,,,0.00,weatherlink.com 1.10,2013-09-30 15:18:00,
2013-09-30 10:33:00,66.7,59.0,30.13,SE,127,4.0,-999.0,75,-99.99,,,0.00,weatherlink.com 1.10,2013-09-30 15:33:00,
2013-09-30 10:48:00,67.1,59.0,30.13,SE,127,5.0,-999.0,74,-99.99,,,0.00,weatherlink.com 1.10,2013-09-30 15:48:00,
2013-09-30 11:03:00,67.6,59.0,30.12,SE,137,6.0,-999.0,73,-99.99,,,0.00,weatherlink.com 1.10,2013-09-30 16:03:00,
2013-09-30 11:18:00,68.0,59.0,30.12,SSE,159,4.0,-999.0,73,-99.99,,,0.00,weatherlink.com 1.10,2013-09-30 16:18:00,
2013-09-30 11:33:00,68.7,59.0,30.12,SSE,163,4.0,-999.0,72,-99.99,,,0.00,weatherlink.com 1.10,2013-09-30 16:33:00,
2013-09-30 11:48:00,69.0,59.0,30.12,SE,141,0.0,-999.0,71,-99.99,,,0.00,weatherlink.com 1.10,2013-09-30 16:48:00,
2013-09-30 12:03:00,69.0,59.0,30.12,SSE,150,5.0,-999.0,70,-99.99,,,0.00,weatherlink.com 1.10,2013-09-30 17:03:00,
2013-09-30 12:18:00,69.8,59.0,30.11,SSE,157,2.0,-999.0,69,-99.99,,,0.00,weatherlink.com 1.10,2013-09-30 17:18:00,
2013-09-30 12:33:00,70.2,60.0,30.11,SW,217,4.0,-999.0,70,-99.99,,,0.00,weatherlink.com 1.10,2013-09-30 17:33:00,
2013-09-30 12:48:00,71.2,60.0,30.09,West,264,9.0,-999.0,68,-99.99,,,0.00,weatherlink.com 1.10,2013-09-30 17:48:00,
2013-09-30 13:03:00,70.4,59.0,30.09,SSE,166,1.0,-999.0,67,-99.99,,,0.00,weatherlink.com 1.10,2013-09-30 18:03:00,
2013-09-30 13:18:00,69.3,61.0,30.08,SW,229,10.0,-999.0,75,-99.99,,,0.00,weatherlink.com 1.10,2013-09-30 18:18:00,
2013-09-30 13:33:00,68.3,61.0,30.07,SSW,192,4.0,-999.0,78,-99.99,,,0.00,weatherlink.com 1.10,2013-09-30 18:33:00,
2013-09-30 13:48:00,69.4,61.0,30.07,WSW,252,4.0,-999.0,75,-99.99,,,0.00,weatherlink.com 1.10,2013-09-30 18:48:00,
2013-09-30 14:03:00,69.4,61.0,30.06,SW,236,2.0,-999.0,75,-99.99,,,0.00,weatherlink.com 1.10,2013-09-30 19:03:00,
2013-09-30 14:18:00,71.6,62.0,30.06,SSW,197,0.0,-999.0,71,-99.99,,,0.00,weatherlink.com 1.10,2013-09-30 19:18:00,
2013-09-30 14:33:00,72.1,61.0,30.05,SE,134,0.0,-999.0,67,-99.99,,,0.00,weatherlink.com 1.10,2013-09-30 19:33:00,
2013-09-30 14:48:00,72.2,61.0,30.05,South,189,4.0,-999.0,67,-99.99,,,0.00,weatherlink.com 1.10,2013-09-30 19:48:00,
2013-09-30 15:03:00,72.1,61.0,30.05,SSW,207,0.0,-999.0,68,-99.99,,,0.00,weatherlink.com 1.10,2013-09-30 20:03:00,
2013-09-30 15:19:00,73.3,60.0,30.04,East,90,6.0,-999.0,64,-99.99,,,0.00,weatherlink.com 1.10,2013-09-30 20:19:00,
2013-09-30 15:34:00,73.0,60.0,30.04,ESE,122,5.0,-999.0,65,-99.99,,,0.00,weatherlink.com 1.10,2013-09-30 20:34:00,
2013-09-30 15:49:00,72.3,61.0,30.04,SSW,202,3.0,-999.0,67,-99.99,,,0.00,weatherlink.com 1.10,2013-09-30 20:49:00,
2013-09-30 16:04:00,72.7,61.0,30.04,SSW,205,3.0,-999.0,66,-99.99,,,0.00,weatherlink.com 1.10,2013-09-30 21:04:00,
2013-09-30 16:19:00,73.2,61.0,30.04,South,173,7.0,-999.0,66,-99.99,,,0.00,weatherlink.com 1.10,2013-09-30 21:19:00,
2013-09-30 16:34:00,73.6,60.0,30.04,SSE,166,2.0,-999.0,63,-99.99,,,0.00,weatherlink.com 1.10,2013-09-30 21:34:00,
2013-09-30 16:49:00,73.3,60.0,30.04,SSW,192,0.0,-999.0,64,-99.99,,,0.00,weatherlink.com 1.10,2013-09-30 21:49:00,
2013-09-30 17:04:00,73.5,60.0,30.05,SSE,160,0.0,-999.0,62,-99.99,,,0.00,weatherlink.com 1.10,2013-09-30 22:04:00,
2013-09-30 17:19:00,73.3,60.0,30.05,SSE,165,1.0,-999.0,64,-99.99,,,0.00,weatherlink.com 1.10,2013-09-30 22:19:00,
2013-09-30 17:34:00,73.2,61.0,30.05,South,182,2.0,-999.0,66,-99.99,,,0.00,weatherlink.com 1.10,2013-09-30 22:34:00,
2013-09-30 17:49:00,72.6,61.0,30.05,SSE,149,0.0,-999.0,67,-99.99,,,0.00,weatherlink.com 1.10,2013-09-30 22:49:00,
2013-09-30 18:04:00,71.7,61.0,30.05,SSE,149,0.0,-999.0,70,-99.99,,,0.00,weatherlink.com 1.10,2013-09-30 23:04:00,
2013-09-30 18:19:00,70.8,61.0,30.05,SSE,149,0.0,-999.0,71,-99.99,,,0.00,weatherlink.com 1.10,2013-09-30 23:19:00,
2013-09-30 18:34:00,69.7,61.0,30.06,SSE,149,0.0,-999.0,73,-99.99,,,0.00,weatherlink.com 1.10,2013-09-30 23:34:00,
2013-09-30 18:49:00,68.8,60.0,30.06,SSE,149,0.0,-999.0,74,-99.99,,,0.00,weatherlink.com 1.10,2013-09-30 23:49:00,
2013-09-30 19:04:00,68.4,60.0,30.06,SSE,149,0.0,-999.0,74,-99.99,,,0.00,weatherlink.com 1.10,2013-10-01 00:04:00,
2013-09-30 19:19:00,68.2,60.0,30.07,SSE,149,0.0,-999.0,75,-99.99,,,0.00,weatherlink.com 1.10,2013-10-01 00:19:00,
2013-09-30 19:34:00,67.6,60.0,30.07,SSE,149,0.0,-999.0,76,-99.99,,,0.00,weatherlink.com 1.10,2013-10-01 00:34:00,
2013-09-30 19:49:00,67.0,60.0,30.08,SSE,149,0.0,-999.0,78,-99.99,,,0.00,weatherlink.com 1.10,2013-10-01 00:49:00,
2013-09-30 20:04:00,66.4,60.0,30.08,SSE,149,0.0,-999.0,80,-99.99,,,0.00,weatherlink.com 1.10,2013-10-01 01:04:00,
2013-09-30 20:19:00,66.2,60.0,30.08,SSE,149,0.0,-999.0,80,-99.99,,,0.00,weatherlink.com 1.10,2013-10-01 01:19:00,
2013-09-30 20:34:00,66.1,60.0,30.09,SSE,149,0.0,-999.0,81,-99.99,,,0.00,weatherlink.com 1.10,2013-10-01 01:34:00,
2013-09-30 20:49:00,65.8,60.0,30.09,SSE,149,0.0,-999.0,82,-99.99,,,0.00,weatherlink.com 1.10,2013-10-01 01:49:00,
2013-09-30 21:04:00,65.4,60.0,30.09,SSE,149,0.0,-999.0,82,-99.99,,,0.00,weatherlink.com 1.10,2013-10-01 02:04:00,
2013-09-30 21:19:00,64.0,60.0,30.09,SSE,149,0.0,-999.0,86,-99.99,,,0.00,weatherlink.com 1.10,2013-10-01 02:19:00,
2013-09-30 21:34:00,63.1,60.0,30.10,SSE,149,0.0,-999.0,88,-99.99,,,0.00,weatherlink.com 1.10,2013-10-01 02:34:00,
2013-09-30 21:49:00,62.6,59.0,30.10,SSE,149,0.0,-999.0,89,-99.99,,,0.00,weatherlink.com 1.10,2013-10-01 02:49:00,
2013-09-30 22:04:00,61.9,59.0,30.10,SE,146,0.0,-999.0,90,-99.99,,,0.00,weatherlink.com 1.10,2013-10-01 03:04:00,
2013-09-30 22:19:00,61.8,59.0,30.10,SE,146,0.0,-999.0,90,-99.99,,,0.00,weatherlink.com 1.10,2013-10-01 03:19:00,
2013-09-30 22:34:00,62.0,59.0,30.10,East,93,2.0,-999.0,90,-99.99,,,0.00,weatherlink.com 1.10,2013-10-01 03:34:00,
2013-09-30 22:49:00,63.4,60.0,30.10,East,94,0.0,-999.0,89,-99.99,,,0.00,weatherlink.com 1.10,2013-10-01 03:49:00,
2013-09-30 23:04:00,64.5,60.0,30.10,SE,124,2.0,-999.0,85,-99.99,,,0.00,weatherlink.com 1.10,2013-10-01 04:04:00,
2013-09-30 23:19:00,64.5,60.0,30.10,ESE,118,5.0,-999.0,84,-99.99,,,0.00,weatherlink.com 1.10,2013-10-01 04:19:00,
2013-09-30 23:34:00,64.2,59.0,30.10,ESE,118,0.0,-999.0,84,-99.99,,,0.00,weatherlink.com 1.10,2013-10-01 04:34:00,
2013-09-30 23:49:00,61.7,59.0,30.09,ESE,118,0.0,-999.0,89,-99.99,,,0.00,weatherlink.com 1.10,2013-10-01 04:49:00,